Time;durP1;ratioP1;P1;durP2;ratioP2;P2;SDS_P1;SDS_P2;PMS_P1;PMS_P2;Temp;Humidity;BMP_temperature;BMP_pressure;BME280_temperature;BME280_humidity;BME280_pressure;Samples;Min_cycle;Max_cycle;Signal;HPM_P1;HPM_P2
2021/08/14 00:01:22;;;;;;;18.00;5.63;;;15.40;99.90;;;;;;4423641;32;20177;-62
2021/08/14 00:03:49;;;;;;;17.93;4.90;;;15.40;99.90;;;;;;4422514;32;20147;-61
2021/08/14 00:06:16;;;;;;;16.07;5.33;;;15.40;99.90;;;;;;4422115;32;20148;-62
2021/08/14 00:08:44;;;;;;;13.13;5.00;;;15.40;99.90;;;;;;4422392;32;20175;-63
2021/08/14 00:11:12;;;;;;;8.77;4.77;;;15.50;99.90;;;;;;4423550;32;20417;-64
2021/08/14 00:13:40;;;;;;;14.30;5.50;;;15.60;99.90;;;;;;4423126;32;20568;-62
2021/08/14 00:16:07;;;;;;;15.50;5.17;;;15.60;99.90;;;;;;4423452;32;20162;-62
2021/08/14 00:18:34;;;;;;;12.23;5.00;;;15.70;99.90;;;;;;4422131;32;20197;-62
2021/08/14 00:21:01;;;;;;;15.60;4.73;;;15.80;99.90;;;;;;4422124;32;20181;-63
2021/08/14 00:23:28;;;;;;;12.87;5.30;;;15.80;99.90;;;;;;4422911;32;20159;-61
2021/08/14 00:25:57;;;;;;;15.83;5.63;;;15.80;99.90;;;;;;4421924;32;20178;-63
2021/08/14 00:28:24;;;;;;;19.83;6.73;;;15.80;99.90;;;;;;4421822;32;20216;-61
2021/08/14 00:30:52;;;;;;;12.67;5.17;;;15.80;99.90;;;;;;4422053;32;20162;-61
2021/08/14 00:33:19;;;;;;;23.00;6.97;;;15.80;99.90;;;;;;4422355;32;20143;-63
2021/08/14 00:35:46;;;;;;;17.87;6.00;;;15.80;99.90;;;;;;4422202;32;20144;-61
2021/08/14 00:38:12;;;;;;;14.83;6.20;;;15.80;99.90;;;;;;4421787;32;20140;-61
2021/08/14 00:40:40;;;;;;;15.10;5.73;;;15.80;99.90;;;;;;4421582;32;20158;-62
2021/08/14 00:43:07;;;;;;;15.53;6.30;;;15.80;99.90;;;;;;4422279;32;20559;-62
2021/08/14 00:45:39;;;;;;;19.70;5.67;;;15.80;99.90;;;;;;4421921;32;20221;-60
2021/08/14 00:48:09;;;;;;;19.03;6.43;;;15.80;99.90;;;;;;4421650;32;20147;-60
2021/08/14 00:50:36;;;;;;;14.60;6.17;;;15.80;99.90;;;;;;4423126;32;20135;-61
2021/08/14 00:53:03;;;;;;;11.97;5.73;;;15.80;99.90;;;;;;4421035;32;20147;-63
2021/08/14 00:55:30;;;;;;;14.00;5.97;;;15.90;99.90;;;;;;4423539;32;20188;-61
2021/08/14 00:57:57;;;;;;;17.17;6.50;;;15.80;99.90;;;;;;4421635;32;20140;-61
2021/08/14 01:00:24;;;;;;;15.97;6.23;;;15.80;99.90;;;;;;4423139;32;20288;-61
2021/08/14 01:02:52;;;;;;;15.23;7.27;;;15.80;99.90;;;;;;4423124;32;20143;-61
2021/08/14 01:05:20;;;;;;;22.30;7.43;;;15.70;99.90;;;;;;4421472;32;20218;-61
2021/08/14 01:07:48;;;;;;;14.07;7.03;;;15.70;99.90;;;;;;4421432;32;20140;-61
2021/08/14 01:10:15;;;;;;;18.40;6.93;;;15.70;99.90;;;;;;4421851;32;20158;-63
2021/08/14 01:12:42;;;;;;;19.03;7.33;;;15.70;99.90;;;;;;4423166;32;20143;-63
2021/08/14 01:15:10;;;;;;;25.93;7.63;;;15.70;99.90;;;;;;4421374;32;20151;-61
2021/08/14 01:17:39;;;;;;;22.57;7.67;;;15.80;99.90;;;;;;4421216;32;20144;-62
2021/08/14 01:20:07;;;;;;;19.13;7.73;;;15.70;99.90;;;;;;4421985;32;20140;-61
2021/08/14 01:22:37;;;;;;;16.17;7.53;;;15.80;99.90;;;;;;4421378;32;20220;-61
2021/08/14 01:25:05;;;;;;;16.77;6.73;;;15.80;99.90;;;;;;4421557;32;20147;-61
2021/08/14 01:27:34;;;;;;;17.13;7.03;;;15.80;99.90;;;;;;4420799;32;20180;-61
2021/08/14 01:30:01;;;;;;;17.30;6.90;;;15.80;99.90;;;;;;4421488;32;20189;-63
2021/08/14 01:32:30;;;;;;;19.63;7.57;;;15.80;99.90;;;;;;4421269;32;20157;-62
2021/08/14 01:34:58;;;;;;;22.67;8.70;;;15.90;99.90;;;;;;4422494;32;20229;-63
2021/08/14 01:37:25;;;;;;;20.23;8.00;;;15.90;99.90;;;;;;4421180;32;20148;-62
2021/08/14 01:39:52;;;;;;;18.93;7.77;;;15.90;99.90;;;;;;4422581;32;20162;-64
2021/08/14 01:42:19;;;;;;;14.60;6.27;;;15.90;99.90;;;;;;4421231;32;20163;-62
2021/08/14 01:44:51;;;;;;;20.50;7.57;;;15.90;99.90;;;;;;4421108;32;20226;-64
2021/08/14 01:47:18;;;;;;;23.67;8.63;;;15.90;99.90;;;;;;4421074;32;20156;-62
2021/08/14 01:49:45;;;;;;;19.53;7.73;;;15.90;99.90;;;;;;4421527;32;20543;-61
2021/08/14 01:52:13;;;;;;;26.33;9.90;;;16.00;99.90;;;;;;4420959;32;20228;-62
2021/08/14 01:54:41;;;;;;;17.27;7.27;;;16.00;99.90;;;;;;4421035;32;20182;-62
2021/08/14 01:57:09;;;;;;;24.40;7.63;;;16.00;99.90;;;;;;4421506;32;20147;-64
2021/08/14 01:59:36;;;;;;;23.87;8.27;;;16.00;99.90;;;;;;4420842;32;20555;-64
2021/08/14 02:02:05;;;;;;;19.43;7.60;;;16.00;99.90;;;;;;4421104;32;20440;-62
2021/08/14 02:04:32;;;;;;;23.97;7.83;;;16.00;99.90;;;;;;4420890;32;20155;-64
2021/08/14 02:06:59;;;;;;;20.10;8.23;;;16.00;99.90;;;;;;4421875;32;20578;-62
2021/08/14 02:09:27;;;;;;;25.20;8.13;;;16.00;99.90;;;;;;4421056;32;20215;-61
2021/08/14 02:11:54;;;;;;;20.93;8.03;;;15.90;99.90;;;;;;4420878;32;20627;-62
2021/08/14 02:14:21;;;;;;;19.07;8.33;;;15.80;99.90;;;;;;4421485;32;20163;-62
2021/08/14 02:16:48;;;;;;;21.20;9.63;;;15.80;99.90;;;;;;4421365;32;20143;-63
2021/08/14 02:19:17;;;;;;;25.10;9.53;;;15.70;99.90;;;;;;4408847;32;20210;-61
2021/08/14 02:21:47;;;;;;;19.50;8.87;;;15.70;99.90;;;;;;4404924;32;20289;-62
2021/08/14 02:24:14;;;;;;;18.00;8.80;;;15.70;99.90;;;;;;4404048;32;20527;-63
2021/08/14 02:26:41;;;;;;;22.77;8.43;;;15.80;99.90;;;;;;4401955;32;20239;-62
2021/08/14 02:29:08;;;;;;;22.70;8.70;;;15.70;99.90;;;;;;4397737;32;20309;-62
2021/08/14 02:31:35;;;;;;;17.30;8.53;;;15.70;99.90;;;;;;4396144;32;20273;-62
2021/08/14 02:34:02;;;;;;;30.57;10.90;;;15.60;99.90;;;;;;4397804;32;20147;-63
2021/08/14 02:36:30;;;;;;;24.90;9.30;;;15.60;99.90;;;;;;4398845;32;20212;-61
2021/08/14 02:38:57;;;;;;;22.63;9.17;;;15.60;99.90;;;;;;4410854;32;20178;-63
2021/08/14 02:41:24;;;;;;;23.83;9.67;;;15.60;99.90;;;;;;4408536;32;20147;-61
2021/08/14 02:43:50;;;;;;;25.60;9.37;;;15.50;99.90;;;;;;4407177;32;20167;-62
2021/08/14 02:46:17;;;;;;;30.03;10.10;;;15.50;99.90;;;;;;4405405;32;20219;-62
2021/08/14 02:48:44;;;;;;;20.90;8.70;;;15.50;99.90;;;;;;4405345;32;20181;-62
2021/08/14 02:51:13;;;;;;;24.23;9.40;;;15.40;99.90;;;;;;4407002;32;20147;-62
2021/08/14 02:53:41;;;;;;;25.30;10.00;;;15.40;99.90;;;;;;4405224;32;20139;-62
2021/08/14 02:56:08;;;;;;;22.10;9.10;;;15.40;99.90;;;;;;4406501;32;20145;-61
2021/08/14 02:58:35;;;;;;;22.50;9.97;;;15.50;99.90;;;;;;4405239;32;20194;-63
2021/08/14 03:01:02;;;;;;;26.40;9.93;;;15.50;99.90;;;;;;4406761;32;20144;-63
2021/08/14 03:03:28;;;;;;;29.00;9.47;;;15.50;99.90;;;;;;4407035;32;20163;-63
2021/08/14 03:05:55;;;;;;;25.87;10.30;;;15.50;99.90;;;;;;4406403;32;20496;-63
2021/08/14 03:08:22;;;;;;;19.20;8.30;;;15.60;99.90;;;;;;4405228;32;20158;-63
2021/08/14 03:10:51;;;;;;;19.70;9.17;;;15.60;99.90;;;;;;4406026;32;20468;-62
2021/08/14 03:13:17;;;;;;;22.77;9.30;;;15.60;99.90;;;;;;4406861;32;20144;-61
2021/08/14 03:15:44;;;;;;;24.73;10.17;;;15.60;99.90;;;;;;4406815;32;20603;-61
2021/08/14 03:18:11;;;;;;;19.87;8.80;;;15.60;99.90;;;;;;4409365;32;20560;-61
2021/08/14 03:20:39;;;;;;;21.43;9.67;;;15.60;99.90;;;;;;4408804;32;20165;-61
2021/08/14 03:23:05;;;;;;;24.63;9.20;;;15.60;99.90;;;;;;4407954;32;20156;-62
2021/08/14 03:25:32;;;;;;;22.07;10.07;;;15.60;99.90;;;;;;4408053;32;20500;-61
2021/08/14 03:28:03;;;;;;;26.07;9.83;;;15.70;99.90;;;;;;4302681;32;3469743;-63
2021/08/14 03:30:30;;;;;;;18.43;9.80;;;15.60;99.90;;;;;;4407834;32;20156;-62
2021/08/14 03:32:57;;;;;;;19.87;9.43;;;15.60;99.90;;;;;;4407903;32;20158;-61
2021/08/14 03:35:23;;;;;;;19.47;9.13;;;15.70;99.90;;;;;;4407802;32;20156;-61
2021/08/14 03:37:50;;;;;;;23.23;9.53;;;15.60;99.90;;;;;;4407664;32;20143;-62
2021/08/14 03:40:18;;;;;;;20.53;10.50;;;15.70;99.90;;;;;;4407426;32;20139;-61
2021/08/14 03:42:45;;;;;;;29.97;10.73;;;15.70;99.90;;;;;;4407489;32;20174;-64
2021/08/14 03:45:13;;;;;;;26.47;10.60;;;15.70;99.90;;;;;;4407638;32;20152;-61
2021/08/14 03:47:40;;;;;;;25.00;10.30;;;15.70;99.90;;;;;;4408360;32;20144;-63
2021/08/14 03:50:08;;;;;;;21.63;9.50;;;15.70;99.90;;;;;;4407046;32;20547;-63
2021/08/14 03:52:35;;;;;;;20.93;9.43;;;15.70;99.90;;;;;;4407511;32;20471;-61
2021/08/14 03:55:02;;;;;;;20.40;9.23;;;15.70;99.90;;;;;;4407322;32;20132;-62
2021/08/14 03:57:29;;;;;;;21.37;9.50;;;15.70;99.90;;;;;;4407272;32;20162;-62
2021/08/14 03:59:56;;;;;;;28.70;10.80;;;15.70;99.90;;;;;;4407407;32;20215;-62
2021/08/14 04:02:25;;;;;;;25.00;9.33;;;15.60;99.90;;;;;;4407396;32;20163;-61
2021/08/14 04:04:52;;;;;;;26.20;9.40;;;15.60;99.90;;;;;;4407246;32;20484;-62
2021/08/14 04:07:19;;;;;;;24.67;9.63;;;15.60;99.90;;;;;;4407278;32;20166;-61
2021/08/14 04:09:45;;;;;;;22.70;9.13;;;15.60;99.90;;;;;;4407142;32;20278;-62
2021/08/14 04:12:12;;;;;;;26.43;9.53;;;15.60;99.90;;;;;;4407288;32;20162;-61
2021/08/14 04:14:39;;;;;;;24.67;8.77;;;15.60;99.90;;;;;;4407250;32;20158;-63
2021/08/14 04:17:06;;;;;;;20.20;9.23;;;15.60;99.90;;;;;;4407287;32;20156;-63
2021/08/14 04:19:34;;;;;;;25.93;10.40;;;15.50;99.90;;;;;;4407053;32;20136;-61
2021/08/14 04:22:01;;;;;;;16.33;8.07;;;15.50;99.90;;;;;;4407613;32;20151;-61
2021/08/14 04:24:29;;;;;;;20.77;8.63;;;15.50;99.90;;;;;;4408083;32;20159;-61
2021/08/14 04:26:56;;;;;;;20.17;9.10;;;15.50;99.90;;;;;;4406911;32;20191;-63
2021/08/14 04:29:22;;;;;;;20.53;8.33;;;15.50;99.90;;;;;;4407767;32;20154;-61
2021/08/14 04:31:51;;;;;;;21.40;8.80;;;15.50;99.90;;;;;;4408521;32;20224;-62
2021/08/14 04:34:18;;;;;;;26.40;9.63;;;15.40;99.90;;;;;;4406929;32;20137;-62
2021/08/14 04:36:47;;;;;;;18.37;8.13;;;15.40;99.90;;;;;;4406742;32;20140;-63
2021/08/14 04:39:14;;;;;;;17.63;7.77;;;15.30;99.90;;;;;;4406941;32;20159;-63
2021/08/14 04:41:41;;;;;;;19.00;8.60;;;15.20;99.90;;;;;;4407081;32;20154;-61
2021/08/14 04:44:07;;;;;;;21.47;8.17;;;15.20;99.90;;;;;;4407374;32;20476;-62
2021/08/14 04:46:34;;;;;;;25.70;9.10;;;15.20;99.90;;;;;;4406640;32;20159;-61
2021/08/14 04:49:01;;;;;;;27.37;10.67;;;15.10;99.90;;;;;;4407060;32;20155;-60
2021/08/14 04:51:28;;;;;;;19.80;8.00;;;15.10;99.90;;;;;;4406716;32;20163;-60
2021/08/14 04:53:58;;;;;;;15.80;7.37;;;15.10;99.90;;;;;;4406844;32;20198;-61
2021/08/14 04:56:27;;;;;;;20.40;8.30;;;15.10;99.90;;;;;;4407113;32;20161;-64
2021/08/14 04:58:54;;;;;;;28.40;9.20;;;15.10;99.90;;;;;;4407526;32;20535;-61
2021/08/14 05:01:21;;;;;;;15.33;7.77;;;15.10;99.90;;;;;;4406505;32;20158;-62
2021/08/14 05:03:48;;;;;;;18.03;7.77;;;15.10;99.90;;;;;;4407362;32;20140;-62
2021/08/14 05:06:15;;;;;;;15.43;8.13;;;15.10;99.90;;;;;;4407555;32;20210;-62
2021/08/14 05:08:41;;;;;;;17.80;7.33;;;15.10;99.90;;;;;;4406551;32;20152;-61
2021/08/14 05:11:10;;;;;;;14.87;7.13;;;15.50;99.90;;;;;;4408067;32;20143;-61
2021/08/14 05:13:36;;;;;;;21.13;7.73;;;15.90;99.90;;;;;;4406174;32;20175;-61
2021/08/14 05:16:03;;;;;;;17.90;7.73;;;16.10;99.90;;;;;;4407998;32;20151;-61
2021/08/14 05:18:30;;;;;;;15.73;6.93;;;16.10;99.90;;;;;;4406166;32;20170;-63
2021/08/14 05:20:59;;;;;;;21.20;7.40;;;16.00;99.90;;;;;;4406068;32;20156;-62
2021/08/14 05:23:26;;;;;;;16.60;6.97;;;15.90;99.90;;;;;;4406266;32;20156;-63
2021/08/14 05:25:52;;;;;;;13.17;7.07;;;15.80;99.90;;;;;;4406959;32;20163;-62
2021/08/14 05:28:22;;;;;;;13.60;7.00;;;15.80;99.90;;;;;;4405509;32;20231;-62
2021/08/14 05:30:49;;;;;;;16.33;7.60;;;15.80;99.90;;;;;;4406058;32;20158;-61
2021/08/14 05:33:23;;;;;;;16.67;7.40;;;15.80;99.90;;;;;;4406968;32;20156;-62
2021/08/14 05:35:50;;;;;;;19.37;7.60;;;15.80;99.90;;;;;;4405552;32;20143;-62
2021/08/14 05:38:17;;;;;;;17.77;6.70;;;15.80;99.90;;;;;;4405695;32;20183;-63
2021/08/14 05:40:44;;;;;;;16.90;6.80;;;15.80;99.90;;;;;;4405730;32;20605;-62
2021/08/14 05:43:11;;;;;;;23.30;9.60;;;15.90;99.90;;;;;;4406260;32;20172;-62
2021/08/14 05:45:39;;;;;;;21.87;8.30;;;15.80;99.90;;;;;;4405772;32;20139;-61
2021/08/14 05:48:07;;;;;;;16.37;7.10;;;15.80;99.90;;;;;;4405922;32;20139;-63
2021/08/14 05:50:35;;;;;;;23.87;8.13;;;15.80;99.90;;;;;;4405873;32;20143;-60
2021/08/14 05:53:02;;;;;;;18.33;7.47;;;15.90;99.90;;;;;;4407427;32;20152;-61
2021/08/14 05:55:28;;;;;;;21.47;7.43;;;15.90;99.90;;;;;;4406211;32;20560;-63
2021/08/14 05:57:56;;;;;;;20.37;8.60;;;16.00;99.90;;;;;;4405584;32;20582;-63
2021/08/14 06:00:23;;;;;;;22.70;8.33;;;16.00;99.90;;;;;;4405204;32;20539;-62
2021/08/14 06:02:51;;;;;;;18.03;7.53;;;16.10;99.90;;;;;;4405833;32;20163;-62
2021/08/14 06:05:18;;;;;;;14.73;8.67;;;16.10;99.90;;;;;;4405819;32;20177;-61
2021/08/14 06:07:50;;;;;;;22.63;8.53;;;16.20;99.90;;;;;;4405599;32;20158;-61
2021/08/14 06:10:19;;;;;;;17.43;7.70;;;16.30;99.90;;;;;;4406746;32;20158;-61
2021/08/14 06:12:46;;;;;;;24.10;8.47;;;16.30;99.90;;;;;;4405709;32;20576;-61
2021/08/14 06:15:14;;;;;;;20.87;8.63;;;16.60;99.90;;;;;;4405665;32;20135;-62
2021/08/14 06:17:41;;;;;;;22.57;8.73;;;16.80;99.90;;;;;;4405893;32;20166;-61
2021/08/14 06:20:12;;;;;;;21.93;8.53;;;16.80;99.90;;;;;;4405497;32;20144;-61
2021/08/14 06:22:39;;;;;;;21.30;8.63;;;16.90;99.90;;;;;;4405501;32;20159;-61
2021/08/14 06:25:07;;;;;;;17.47;8.67;;;16.90;99.90;;;;;;4405587;32;20154;-61
2021/08/14 06:27:34;;;;;;;18.00;8.60;;;16.90;99.90;;;;;;4405293;32;20155;-61
2021/08/14 06:30:01;;;;;;;21.10;9.03;;;17.00;99.90;;;;;;4405318;32;20211;-61
2021/08/14 06:32:30;;;;;;;21.27;9.63;;;17.20;99.90;;;;;;4405372;32;20140;-61
2021/08/14 06:34:57;;;;;;;22.00;9.53;;;17.30;99.90;;;;;;4406556;32;20193;-61
2021/08/14 06:37:26;;;;;;;18.50;8.90;;;17.70;99.90;;;;;;4406841;32;20139;-61
2021/08/14 06:39:52;;;;;;;22.77;9.67;;;18.20;99.90;;;;;;4405242;32;20158;-62
2021/08/14 06:42:19;;;;;;;19.97;8.93;;;18.60;99.90;;;;;;4405287;32;20462;-60
2021/08/14 06:44:46;;;;;;;25.23;9.73;;;18.90;99.90;;;;;;4405372;32;20162;-60
2021/08/14 06:47:13;;;;;;;32.23;12.60;;;18.90;99.90;;;;;;4406239;32;20234;-60
2021/08/14 06:49:39;;;;;;;28.93;12.03;;;19.00;99.90;;;;;;4405551;32;20215;-60
2021/08/14 06:52:07;;;;;;;28.67;12.13;;;19.00;99.90;;;;;;4408276;32;20151;-61
2021/08/14 06:54:35;;;;;;;28.80;12.70;;;19.00;99.90;;;;;;4408007;32;20139;-61
2021/08/14 06:57:02;;;;;;;31.03;13.70;;;18.90;99.90;;;;;;4408878;32;20579;-61
2021/08/14 06:59:28;;;;;;;29.37;12.70;;;18.80;99.90;;;;;;4409988;32;20185;-61
2021/08/14 07:01:55;;;;;;;30.27;14.47;;;18.80;99.90;;;;;;4408323;32;20140;-60
2021/08/14 07:04:23;;;;;;;30.33;13.77;;;18.60;99.90;;;;;;4408422;32;20163;-60
2021/08/14 07:06:52;;;;;;;35.33;15.97;;;18.50;99.90;;;;;;4408026;32;20202;-62
2021/08/14 07:09:19;;;;;;;37.57;14.60;;;18.50;99.90;;;;;;4413926;32;20144;-62
2021/08/14 07:11:47;;;;;;;34.67;14.60;;;18.40;99.90;;;;;;4423002;32;20174;-60
2021/08/14 07:14:14;;;;;;;31.17;14.73;;;18.30;99.90;;;;;;4423166;32;20555;-61
2021/08/14 07:16:41;;;;;;;35.77;14.67;;;18.20;99.90;;;;;;4423079;32;20218;-61
2021/08/14 07:19:08;;;;;;;42.90;15.97;;;18.30;99.90;;;;;;4422789;32;20193;-62
2021/08/14 07:21:35;;;;;;;35.30;15.27;;;18.30;99.90;;;;;;4423599;32;20488;-61
2021/08/14 07:24:02;;;;;;;36.73;16.27;;;18.30;99.90;;;;;;4423065;32;20269;-61
2021/08/14 07:26:29;;;;;;;34.13;16.33;;;18.30;99.90;;;;;;4423104;32;20185;-61
2021/08/14 07:28:57;;;;;;;33.37;16.27;;;18.30;99.90;;;;;;4422897;32;20170;-61
2021/08/14 07:31:24;;;;;;;39.73;16.73;;;18.40;99.90;;;;;;4423404;32;20163;-62
2021/08/14 07:33:50;;;;;;;36.47;17.13;;;18.40;99.90;;;;;;4422773;32;20143;-62
2021/08/14 07:36:17;;;;;;;36.60;16.30;;;18.40;99.90;;;;;;4423352;32;20143;-64
2021/08/14 07:38:44;;;;;;;53.57;20.70;;;18.30;99.90;;;;;;4422875;32;20162;-63
2021/08/14 07:41:11;;;;;;;39.87;17.90;;;18.30;99.90;;;;;;4422885;32;20159;-61
2021/08/14 07:43:38;;;;;;;41.47;19.03;;;18.30;99.90;;;;;;4423278;32;20662;-62
2021/08/14 07:46:06;;;;;;;42.73;19.60;;;18.30;99.90;;;;;;4423071;32;20441;-62
2021/08/14 07:48:33;;;;;;;43.27;18.07;;;18.40;99.90;;;;;;4422624;32;20219;-62
2021/08/14 07:51:01;;;;;;;36.90;18.47;;;18.30;99.90;;;;;;4422658;32;20174;-61
2021/08/14 07:53:28;;;;;;;34.47;16.27;;;18.30;99.90;;;;;;4422524;32;20186;-62
2021/08/14 07:55:55;;;;;;;38.30;18.83;;;18.30;99.90;;;;;;4422527;32;20451;-61
2021/08/14 07:58:22;;;;;;;41.80;19.57;;;18.40;99.90;;;;;;4422589;32;20173;-61
2021/08/14 08:00:49;;;;;;;43.97;19.40;;;18.50;99.90;;;;;;4422489;32;20155;-61
2021/08/14 08:03:17;;;;;;;37.23;17.70;;;18.60;99.90;;;;;;4422447;32;20135;-61
2021/08/14 08:05:45;;;;;;;37.57;19.13;;;18.60;99.90;;;;;;4422441;32;20178;-63
2021/08/14 08:08:13;;;;;;;45.30;21.40;;;18.60;99.90;;;;;;4422311;32;20441;-63
2021/08/14 08:10:40;;;;;;;38.67;19.03;;;18.60;99.90;;;;;;4422697;32;20527;-62
2021/08/14 08:13:07;;;;;;;44.07;23.07;;;18.70;99.90;;;;;;4422551;32;20579;-62
2021/08/14 08:15:34;;;;;;;43.60;21.37;;;18.70;99.90;;;;;;4422721;32;20158;-61
2021/08/14 08:18:00;;;;;;;41.77;20.40;;;18.90;99.90;;;;;;4422308;32;20163;-62
2021/08/14 08:20:29;;;;;;;46.97;21.70;;;18.90;99.90;;;;;;4422386;32;20207;-61
2021/08/14 08:22:59;;;;;;;45.33;20.27;;;19.00;99.90;;;;;;4422081;32;20224;-61
2021/08/14 08:25:26;;;;;;;55.47;22.57;;;19.10;99.90;;;;;;4422679;32;20177;-62
2021/08/14 08:27:53;;;;;;;46.30;21.47;;;19.20;99.90;;;;;;4421803;32;20178;-63
2021/08/14 08:30:21;;;;;;;39.37;20.77;;;19.20;99.90;;;;;;4421995;32;20150;-60
2021/08/14 08:32:53;;;;;;;48.53;25.47;;;19.30;99.90;;;;;;4408569;32;20159;-60
2021/08/14 08:35:20;;;;;;;50.33;24.13;;;19.40;99.90;;;;;;4400501;32;20171;-62
2021/08/14 08:37:49;;;;;;;52.53;26.37;;;19.50;99.90;;;;;;4404891;32;20163;-63
2021/08/14 08:40:17;;;;;;;52.13;25.57;;;19.60;99.90;;;;;;4408978;32;20527;-63
2021/08/14 08:42:46;;;;;;;48.70;22.40;;;19.60;99.90;;;;;;4400231;32;20253;-61
2021/08/14 08:45:14;;;;;;;46.77;22.53;;;19.60;99.90;;;;;;4401722;32;20623;-63
2021/08/14 08:47:43;;;;;;;44.37;21.50;;;19.70;99.90;;;;;;4408351;32;20269;-61
2021/08/14 08:50:11;;;;;;;46.27;22.23;;;19.60;99.90;;;;;;4408067;32;20215;-61
2021/08/14 08:52:38;;;;;;;49.60;22.60;;;19.70;99.90;;;;;;4416858;32;20148;-61
2021/08/14 08:55:08;;;;;;;37.17;18.33;;;19.80;99.90;;;;;;4415571;32;20151;-63
2021/08/14 08:57:35;;;;;;;39.73;18.27;;;19.80;99.90;;;;;;4423065;32;20185;-61
2021/08/14 09:00:02;;;;;;;47.50;18.10;;;19.80;99.90;;;;;;4421674;32;20214;-62
2021/08/14 09:02:31;;;;;;;29.10;15.00;;;19.80;99.90;;;;;;4422117;32;20234;-61
2021/08/14 09:05:11;;;;;;;40.37;17.97;;;19.80;99.90;;;;;;4421453;32;20177;-63
2021/08/14 09:07:38;;;;;;;41.53;15.87;;;20.00;99.90;;;;;;4423309;32;20131;-63
2021/08/14 09:10:08;;;;;;;34.80;15.70;;;20.10;99.90;;;;;;4421391;32;20215;-62
2021/08/14 09:12:38;;;;;;;32.33;14.10;;;20.20;99.90;;;;;;4421557;32;20165;-60
2021/08/14 09:15:07;;;;;;;34.60;14.90;;;20.40;99.90;;;;;;4421044;32;20159;-62
2021/08/14 09:17:34;;;;;;;36.10;14.87;;;20.90;99.90;;;;;;4423072;32;20139;-63
2021/08/14 09:20:12;;;;;;;32.30;15.37;;;22.30;99.90;;;;;;4421352;32;20176;-60
2021/08/14 09:22:40;;;;;;;30.40;12.93;;;23.10;99.90;;;;;;4423035;32;20169;-62
2021/08/14 09:25:18;;;;;;;29.27;14.27;;;24.10;99.90;;;;;;4422962;32;20214;-61
2021/08/14 09:27:55;;;;;;;32.37;14.87;;;24.60;99.90;;;;;;4421178;32;20155;-64
2021/08/14 09:30:42;;;;;;;32.87;13.83;;;23.90;99.90;;;;;;4421245;32;20159;-63
2021/08/14 09:33:10;;;;;;;24.37;12.67;;;23.50;99.90;;;;;;4421157;32;20208;-63
2021/08/14 09:35:38;;;;;;;25.90;13.57;;;23.20;99.90;;;;;;4421262;32;20151;-63
2021/08/14 09:38:06;;;;;;;37.10;13.27;;;22.60;99.90;;;;;;4422031;32;20135;-62
2021/08/14 09:40:39;;;;;;;27.63;13.83;;;22.40;99.90;;;;;;4421122;32;20144;-62
2021/08/14 09:43:07;;;;;;;28.40;13.97;;;22.30;99.90;;;;;;4422744;32;20162;-62
2021/08/14 09:45:35;;;;;;;26.57;14.50;;;22.10;99.90;;;;;;4421270;32;20180;-62
2021/08/14 09:48:19;;;;;;;39.93;17.23;;;22.00;99.90;;;;;;4421082;32;20210;-61
2021/08/14 09:50:47;;;;;;;30.97;15.27;;;22.20;99.90;;;;;;4421127;32;20136;-62
2021/08/14 09:53:16;;;;;;;31.97;15.57;;;22.40;99.90;;;;;;4420979;32;20173;-62
2021/08/14 09:55:47;;;;;;;25.33;15.27;;;22.60;99.90;;;;;;4421002;32;20150;-62
2021/08/14 09:58:17;;;;;;;31.73;17.00;;;22.80;99.90;;;;;;4420836;32;20158;-62
2021/08/14 10:00:46;;;;;;;31.37;17.93;;;23.10;99.90;;;;;;4421433;32;20148;-62
2021/08/14 10:03:16;;;;;;;31.97;17.63;;;23.80;99.90;;;;;;4421235;32;20161;-62
2021/08/14 10:05:44;;;;;;;29.67;15.07;;;24.60;99.90;;;;;;4420794;32;20192;-63
2021/08/14 10:08:11;;;;;;;33.58;16.95;;;25.50;99.90;;;;;;4420878;32;20169;-62
2021/08/14 10:10:39;;;;;;;28.10;14.57;;;25.80;99.90;;;;;;4420760;32;20162;-63
2021/08/14 10:13:07;;;;;;;29.20;14.70;;;25.80;99.90;;;;;;4421185;32;20135;-63
2021/08/14 10:15:37;;;;;;;32.17;16.15;;;25.90;99.90;;;;;;4420559;32;20151;-63
2021/08/14 10:18:05;;;;;;;28.95;14.32;;;25.90;99.90;;;;;;4420843;32;20159;-65
2021/08/14 10:20:32;;;;;;;24.85;13.32;;;25.40;99.90;;;;;;4421304;32;20139;-64
2021/08/14 10:23:01;;;;;;;24.02;12.90;;;25.00;99.90;;;;;;4420674;32;20157;-63
2021/08/14 10:25:29;;;;;;;25.95;12.82;;;24.70;99.90;;;;;;4421724;32;20162;-63
2021/08/14 10:27:58;;;;;;;30.48;15.18;;;24.40;99.90;;;;;;4424018;32;20170;-63
2021/08/14 10:30:49;;;;;;;29.30;15.17;;;24.10;99.90;;;;;;4424991;32;20209;-64
2021/08/14 10:33:37;;;;;;;27.30;15.85;;;24.10;99.90;;;;;;4423837;32;20223;-64
2021/08/14 10:36:36;;;;;;;25.98;14.48;;;24.10;99.90;;;;;;4425135;32;20163;-63
2021/08/14 10:39:17;;;;;;;26.48;17.02;;;24.30;99.90;;;;;;4423758;32;20144;-65
2021/08/14 10:41:44;;;;;;;29.67;15.95;;;24.40;99.90;;;;;;4425132;32;20528;-65
2021/08/14 10:44:11;;;;;;;30.05;16.67;;;24.10;99.90;;;;;;4425167;32;20135;-63
2021/08/14 10:46:50;;;;;;;30.80;15.63;;;24.20;99.90;;;;;;4423509;32;20135;-63
2021/08/14 10:49:22;;;;;;;23.87;14.48;;;24.70;99.90;;;;;;4423965;32;20184;-62
2021/08/14 10:52:14;;;;;;;39.13;18.27;;;24.90;99.90;;;;;;4423648;32;20152;-64
2021/08/14 10:55:07;;;;;;;25.75;14.63;;;24.80;99.90;;;;;;4423526;32;20135;-63
2021/08/14 10:57:40;;;;;;;34.80;17.75;;;24.80;99.90;;;;;;4417456;32;20571;-65
2021/08/14 11:00:14;;;;;;;32.20;16.27;;;25.00;99.90;;;;;;4421702;32;20139;-65
2021/08/14 11:05:37;;;;;;;27.95;15.85;;;25.30;99.90;;;;;;4402438;31;2507143;-64
2021/08/14 11:08:21;;;;;;;33.20;14.85;;;25.80;99.90;;;;;;4465152;32;20158;-62
2021/08/14 11:10:48;;;;;;;27.20;13.27;;;25.80;99.90;;;;;;4465029;32;20150;-64
2021/08/14 11:13:51;;;;;;;25.48;12.63;;;26.20;99.90;;;;;;4464897;32;20244;-62
2021/08/14 11:16:57;;;;;;;31.85;14.68;;;26.10;99.50;;;;;;4466747;32;20161;-62
2021/08/14 11:19:50;;;;;;;21.30;13.13;;;25.80;99.90;;;;;;4464836;32;20168;-63
2021/08/14 11:22:30;;;;;;;30.55;14.38;;;25.60;99.90;;;;;;4465343;32;20262;-63
2021/08/14 11:25:01;;;;;;;30.23;15.13;;;25.60;99.90;;;;;;4466629;32;20181;-63
2021/08/14 11:27:30;;;;;;;30.08;14.23;;;25.50;99.90;;;;;;4465170;32;20558;-62
2021/08/14 11:30:00;;;;;;;29.45;15.00;;;25.30;99.90;;;;;;4464657;32;20170;-63
2021/08/14 11:32:28;;;;;;;28.62;13.57;;;24.80;99.90;;;;;;4465586;32;20598;-63
2021/08/14 11:34:55;;;;;;;27.65;13.70;;;24.40;99.90;;;;;;4464678;32;20165;-63
2021/08/14 11:37:22;;;;;;;29.08;12.73;;;24.30;99.90;;;;;;4464831;32;20165;-65
2021/08/14 11:40:00;;;;;;;23.83;12.40;;;24.60;99.90;;;;;;4464745;32;20206;-63
2021/08/14 11:42:29;;;;;;;25.30;10.93;;;24.70;99.90;;;;;;4464838;32;20516;-64
2021/08/14 11:44:57;;;;;;;24.77;10.82;;;24.50;99.90;;;;;;4465042;32;20164;-63
2021/08/14 11:47:33;;;;;;;20.92;10.18;;;24.30;99.90;;;;;;4464596;32;20589;-63
2021/08/14 11:50:01;;;;;;;18.20;9.63;;;24.30;99.90;;;;;;4464522;32;20612;-63
2021/08/14 11:52:30;;;;;;;19.15;8.75;;;24.50;99.90;;;;;;4464965;32;20177;-64
2021/08/14 11:55:02;;;;;;;19.10;9.63;;;24.60;99.90;;;;;;4464322;32;20193;-66
2021/08/14 11:57:31;;;;;;;19.60;10.02;;;24.30;99.90;;;;;;4465588;32;20158;-64
2021/08/14 11:59:59;;;;;;;22.10;9.02;;;24.20;99.90;;;;;;4464482;32;20150;-66
2021/08/14 12:02:27;;;;;;;17.15;7.65;;;24.00;99.90;;;;;;4464302;32;20158;-63
2021/08/14 12:04:55;;;;;;;22.15;7.95;;;23.80;99.90;;;;;;4464107;32;20162;-65
2021/08/14 12:07:23;;;;;;;17.35;7.03;;;23.70;99.90;;;;;;4464084;32;20146;-65
2021/08/14 12:09:51;;;;;;;19.55;7.50;;;23.70;99.90;;;;;;4464160;32;20594;-63
2021/08/14 12:12:20;;;;;;;18.77;7.75;;;23.90;99.90;;;;;;4465971;32;20185;-63
2021/08/14 12:14:48;;;;;;;17.92;7.28;;;24.50;99.90;;;;;;4463202;32;20200;-64
2021/08/14 12:17:15;;;;;;;15.10;7.22;;;24.60;99.90;;;;;;4453631;32;20143;-64
2021/08/14 12:19:53;;;;;;;17.52;6.03;;;24.60;99.90;;;;;;4453663;32;20162;-64
2021/08/14 12:22:20;;;;;;;15.63;6.68;;;24.50;99.90;;;;;;4455139;32;20503;-64
2021/08/14 12:24:49;;;;;;;18.73;7.90;;;24.30;99.90;;;;;;4453638;32;20210;-65
2021/08/14 12:27:31;;;;;;;16.73;7.37;;;24.20;99.90;;;;;;4455387;32;20147;-64
2021/08/14 12:30:19;;;;;;;16.27;5.50;;;24.70;99.90;;;;;;4453790;32;20139;-67
2021/08/14 12:32:47;;;;;;;15.05;5.35;;;24.50;98.80;;;;;;4453355;32;20174;-64
2021/08/14 12:35:16;;;;;;;15.00;5.45;;;24.20;99.10;;;;;;4453151;32;20146;-63
2021/08/14 12:37:43;;;;;;;12.85;5.32;;;24.20;99.90;;;;;;4453503;32;20142;-65
2021/08/14 12:40:12;;;;;;;10.90;5.22;;;24.30;99.80;;;;;;4453268;32;20170;-64
2021/08/14 12:42:40;;;;;;;10.20;3.85;;;24.30;99.30;;;;;;4453146;32;20496;-64
2021/08/14 12:45:18;;;;;;;11.10;4.25;;;24.60;97.90;;;;;;4453313;32;20204;-63